createdAt,value
2019-06-01T05:36:27.286Z,11.78
2019-06-01T05:38:58.615Z,11.40
2019-06-01T05:41:29.639Z,12.70
2019-06-01T05:44:00.676Z,10.85
2019-06-01T05:46:31.707Z,12.03
2019-06-01T05:49:02.733Z,12.47
2019-06-01T05:51:33.768Z,12.63
2019-06-01T05:54:05.096Z,11.78
2019-06-01T05:56:36.215Z,13.00
2019-06-01T05:59:07.375Z,12.07
2019-06-01T06:01:42.022Z,12.18
2019-06-01T06:04:13.457Z,14.75
2019-06-01T06:06:44.564Z,11.65
2019-06-01T06:09:17.108Z,12.33
2019-06-01T06:11:48.438Z,10.45
2019-06-01T06:14:21.077Z,10.53
2019-06-01T06:16:52.694Z,11.50
2019-06-01T06:19:23.889Z,10.65
2019-06-01T06:21:55.032Z,10.85
2019-06-01T06:24:26.196Z,10.88
2019-06-01T06:26:57.362Z,9.93
2019-06-01T06:29:28.496Z,11.08
2019-06-01T06:31:59.618Z,10.10
2019-06-01T06:34:30.839Z,9.05
2019-06-01T06:37:01.911Z,11.05
2019-06-01T06:39:33.064Z,9.85
2019-06-01T06:42:04.264Z,10.20
2019-06-01T06:44:35.543Z,9.08
2019-06-01T06:47:06.649Z,8.10
2019-06-01T06:49:37.774Z,7.80
2019-06-01T06:52:09.108Z,6.25
2019-06-01T06:54:40.317Z,6.22
2019-06-01T06:57:11.398Z,7.00
2019-06-01T06:59:42.525Z,6.62
2019-06-01T07:02:13.642Z,7.28
2019-06-01T07:04:44.842Z,6.53
2019-06-01T07:07:16.038Z,5.37
2019-06-01T07:09:47.195Z,4.70
2019-06-01T07:12:19.216Z,5.15
2019-06-01T07:14:50.431Z,4.90
2019-06-01T07:17:21.577Z,5.12
2019-06-01T07:19:52.734Z,5.30
2019-06-01T07:22:23.962Z,5.47
2019-06-01T07:24:55.137Z,5.58
2019-06-01T07:27:26.306Z,5.30
2019-06-01T07:29:58.474Z,4.72
2019-06-01T07:32:29.644Z,5.47
2019-06-01T07:35:01.776Z,4.62
2019-06-01T07:37:33.132Z,4.90
2019-06-01T07:40:07.418Z,5.78
2019-06-01T07:42:38.645Z,6.12
2019-06-01T07:45:09.866Z,5.65
2019-06-01T07:47:41.088Z,5.28
2019-06-01T07:50:12.397Z,5.00
2019-06-01T07:52:43.634Z,4.97
2019-06-01T07:55:14.996Z,5.25
2019-06-01T07:57:46.081Z,5.10
2019-06-01T08:00:18.421Z,4.30
2019-06-01T08:02:49.654Z,4.85
2019-06-01T08:05:23.270Z,4.67
2019-06-01T08:07:53.640Z,4.80
2019-06-01T08:10:26.025Z,5.30
2019-06-01T08:12:58.730Z,5.10
2019-06-01T08:15:29.907Z,4.67
2019-06-01T08:18:01.088Z,5.50
2019-06-01T08:20:32.362Z,4.90
2019-06-01T08:23:03.431Z,4.78
2019-06-01T08:25:34.976Z,5.00
2019-06-01T08:28:06.114Z,4.37
2019-06-01T08:30:37.226Z,3.70
2019-06-01T08:33:08.375Z,4.83
2019-06-01T08:35:39.491Z,3.37
2019-06-01T08:38:10.576Z,3.52
2019-06-01T08:40:41.695Z,3.92
2019-06-01T08:43:13.034Z,4.28
2019-06-01T08:45:44.219Z,4.87
2019-06-01T08:48:15.473Z,4.80
2019-06-01T08:50:46.609Z,4.03
2019-06-01T08:53:17.721Z,4.83
2019-06-01T08:55:48.863Z,4.60
2019-06-01T08:58:20.018Z,4.65
2019-06-01T09:00:51.210Z,4.30
2019-06-01T09:03:22.555Z,4.00
2019-06-01T09:05:53.669Z,4.37
2019-06-01T09:08:26.015Z,3.92
2019-06-01T09:10:57.611Z,4.15
2019-06-01T09:13:29.141Z,3.10
2019-06-01T09:16:00.360Z,3.80
2019-06-01T09:18:31.605Z,3.95
2019-06-01T09:21:02.763Z,2.77
2019-06-01T09:23:33.872Z,4.65
2019-06-01T09:26:05.509Z,3.77
2019-06-01T09:28:37.644Z,3.40
2019-06-01T09:31:08.886Z,3.52
2019-06-01T09:33:40.059Z,4.15
2019-06-01T09:36:11.311Z,4.42
2019-06-01T09:38:42.555Z,3.02
2019-06-01T09:41:13.750Z,3.70
2019-06-01T09:43:45.045Z,6.53
2019-06-01T09:46:16.129Z,5.05
2019-06-01T09:48:47.518Z,8.60
2019-06-01T09:51:18.625Z,6.53
2019-06-01T09:53:49.764Z,3.50
2019-06-01T09:56:20.888Z,3.70
2019-06-01T09:58:51.952Z,4.20
